Terminal Aerodrome Forecast
Issued by NWS Central Illinois

Home | Current Version | Previous Version | Text Only | Print | Product List | Glossary On
Versions: 1 2 3 4 5 6 7 8 9 10 11 12 13 14 15
000
FTUS43 KILX 031736
TAFPIA
TAF
KPIA 031736Z 0318/0418 05005KT P6SM SCT035 BKN250
     FM040000 03002KT P6SM FEW045 BKN250
     FM040900 VRB01KT 5SM BR SCT250
     FM041500 VRB03KT P6SM FEW025 SCT250=

USA.gov is the U.S. government's official web portal to all federal, state and local government web resources and services.